Alaska Titan — WDE4789 — position and weather

sailwx.info

Track history (hours):
 
Tides and Currents Weather Stations Pressure Air Temp Water Temp Dewpoint Dewpoint Depression Visibility Wind Speed Wind Dir Waves Ship Positions

Alaska Titan

Owner: WESTERN TOWBOAT CO, Seattle, WA. More information available from US FCC via Universal Licensing System and Coast Guard Vessel Documentation Center.

Last reported at 2015-Jan-29 21:33 UTC. Time now 2015-Jan-29 22:31 UTC.
Position N 47°46' W 122°27'.

Length 40 m; draft 6 m.

Type: Tow > 200 m length. MMSI: 367357890.

Date/timePositionNaut miles runAvg speedWind from/ knotsBaromVisibWave heightAir tempDewpointWater temp
2015-Jan-29 21:33N 47°46' W 122°27'1 9.9
2015-Jan-29 21:30N 47°46' W 122°27'9 9.8
2015-Jan-29 20:34N 47°55' W 122°30'9 9.4
2015-Jan-29 19:37N 48°02' W 122°39'210.0
2015-Jan-29 19:25N 48°04' W 122°39'910.1
2015-Jan-29 18:33N 48°12' W 122°46'8 9.3
2015-Jan-29 17:42N 48°20' W 122°47'2 9.9
2015-Jan-29 17:32N 48°21' W 122°46'9 9.2
2015-Jan-29 16:33N 48°30' W 122°45'10 9.7
2015-Jan-29 15:33N 48°40' W 122°43'7 9.7
2015-Jan-29 14:52N 48°45' W 122°49'310.1
2015-Jan-29 14:33N 48°47' W 122°53'1010.3
2015-Jan-29 13:33N 48°53' W 123°06'810.6
2015-Jan-29 12:48N 48°58' W 123°15'2 9.6
2015-Jan-29 12:33N 49°00' W 123°17'10 9.9
2015-Jan-29 11:33N 49°07' W 123°28'1010.0
2015-Jan-29 10:33N 49°15' W 123°38'10 9.7
2015-Jan-29 09:33N 49°21' W 123°49'10 9.6
2015-Jan-29 08:33N 49°26' W 124°02'10 9.6
2015-Jan-29 07:33N 49°31' W 124°14'10 9.9
2015-Jan-29 06:31N 49°36' W 124°27'10 9.9
2015-Jan-29 05:29N 49°43' W 124°40'85 6.9
2015-Jan-28 17:08N 50°30' W 126°30'8 9.2
2015-Jan-28 16:16N 50°33' W 126°41'8 9.5
2015-Jan-28 15:28N 50°39' W 126°49'910.2
2015-Jan-28 14:33N 50°44' W 127°02'9 9.3
2015-Jan-28 13:33N 50°49' W 127°14'9 8.9
2015-Jan-28 12:33N 50°55' W 127°24'9 9.4
2015-Jan-28 11:33N 51°00' W 127°36'9 8.8
2015-Jan-28 10:33N 51°07' W 127°46'10 9.1
2015-Jan-28 09:29N 51°15' W 127°53'9 9.0
2015-Jan-28 08:30N 51°23' W 127°60'198 8.9
2015-Jan-27 10:18N 54°08' W 131°02'10 9.5
2015-Jan-27 09:14N 54°18' W 131°05'  
2015-Jan-24 21:00N 59°30' W 141°54'43 7.2 120 / 22998.3 5.4 2.0 6.7
2015-Jan-24 15:00N 59°36' W 143°18'88 7.3 180 / 201001.4 5.4 0.5 6.9
2015-Jan-24 03:00N 60°00' W 146°06'   040 / 12989.8 5.4 0.5 7.5
2015-Jan-20 03:00N 60°36' W 147°42'   020 / 121012.010.8 0.5 4.5
Track history (hours):
 
Tides and Currents Weather Stations Pressure Air Temp Water Temp Dewpoint Dewpoint Depression Visibility Wind Speed Wind Dir Waves Ship Positions

Alaska Titan

Owner: WESTERN TOWBOAT CO, Seattle, WA. More information available from US FCC via Universal Licensing System and Coast Guard Vessel Documentation Center.

Last reported at 2015-Jan-29 21:33 UTC. Time now 2015-Jan-29 22:31 UTC.
Position N 47°46' W 122°27'.

Length 40 m; draft 6 m.

Type: Tow > 200 m length. MMSI: 367357890.

Date/timePositionNaut miles runAvg speedWind from/ knotsBaromVisibWave heightAir tempDewpointWater temp
2015-Jan-29 21:33N 47°46' W 122°27'1 9.9
2015-Jan-29 21:30N 47°46' W 122°27'9 9.8
2015-Jan-29 20:34N 47°55' W 122°30'9 9.4
2015-Jan-29 19:37N 48°02' W 122°39'210.0
2015-Jan-29 19:25N 48°04' W 122°39'910.1
2015-Jan-29 18:33N 48°12' W 122°46'8 9.3
2015-Jan-29 17:42N 48°20' W 122°47'2 9.9
2015-Jan-29 17:32N 48°21' W 122°46'9 9.2
2015-Jan-29 16:33N 48°30' W 122°45'10 9.7
2015-Jan-29 15:33N 48°40' W 122°43'7 9.7
2015-Jan-29 14:52N 48°45' W 122°49'310.1
2015-Jan-29 14:33N 48°47' W 122°53'1010.3
2015-Jan-29 13:33N 48°53' W 123°06'810.6
2015-Jan-29 12:48N 48°58' W 123°15'2 9.6
2015-Jan-29 12:33N 49°00' W 123°17'10 9.9
2015-Jan-29 11:33N 49°07' W 123°28'1010.0
2015-Jan-29 10:33N 49°15' W 123°38'10 9.7
2015-Jan-29 09:33N 49°21' W 123°49'10 9.6
2015-Jan-29 08:33N 49°26' W 124°02'10 9.6
2015-Jan-29 07:33N 49°31' W 124°14'10 9.9
2015-Jan-29 06:31N 49°36' W 124°27'10 9.9
2015-Jan-29 05:29N 49°43' W 124°40'85 6.9
2015-Jan-28 17:08N 50°30' W 126°30'8 9.2
2015-Jan-28 16:16N 50°33' W 126°41'8 9.5
2015-Jan-28 15:28N 50°39' W 126°49'910.2
2015-Jan-28 14:33N 50°44' W 127°02'9 9.3
2015-Jan-28 13:33N 50°49' W 127°14'9 8.9
2015-Jan-28 12:33N 50°55' W 127°24'9 9.4
2015-Jan-28 11:33N 51°00' W 127°36'9 8.8
2015-Jan-28 10:33N 51°07' W 127°46'10 9.1
2015-Jan-28 09:29N 51°15' W 127°53'9 9.0
2015-Jan-28 08:30N 51°23' W 127°60'198 8.9
2015-Jan-27 10:18N 54°08' W 131°02'10 9.5
2015-Jan-27 09:14N 54°18' W 131°05'  
2015-Jan-24 21:00N 59°30' W 141°54'43 7.2 120 / 22998.3 5.4 2.0 6.7
2015-Jan-24 15:00N 59°36' W 143°18'88 7.3 180 / 201001.4 5.4 0.5 6.9
2015-Jan-24 03:00N 60°00' W 146°06'   040 / 12989.8 5.4 0.5 7.5
2015-Jan-20 03:00N 60°36' W 147°42'   020 / 121012.010.8 0.5 4.5

Dump ship's entire track history